sensor_id;sensor_type;location;lat;lon;timestamp;P1;durP1;ratioP1;P2;durP2;ratioP2
49948;SDS011;35840;45.982;8.890;2024-02-04T00:02:06;7.50;;;3.58;;
49948;SDS011;35840;45.982;8.890;2024-02-04T00:04:36;9.05;;;3.72;;
49948;SDS011;35840;45.982;8.890;2024-02-04T00:07:03;7.20;;;4.57;;
49948;SDS011;35840;45.982;8.890;2024-02-04T00:09:30;7.25;;;4.35;;
49948;SDS011;35840;45.982;8.890;2024-02-04T00:12:01;7.63;;;4.60;;
49948;SDS011;35840;45.982;8.890;2024-02-04T00:14:30;8.38;;;4.70;;
49948;SDS011;35840;45.982;8.890;2024-02-04T00:16:57;14.13;;;6.47;;
49948;SDS011;35840;45.982;8.890;2024-02-04T00:19:24;10.35;;;5.78;;
49948;SDS011;35840;45.982;8.890;2024-02-04T00:21:51;8.73;;;5.53;;
49948;SDS011;35840;45.982;8.890;2024-02-04T00:24:17;11.20;;;5.60;;
49948;SDS011;35840;45.982;8.890;2024-02-04T00:26:48;10.70;;;6.38;;
49948;SDS011;35840;45.982;8.890;2024-02-04T00:29:15;9.77;;;5.47;;
49948;SDS011;35840;45.982;8.890;2024-02-04T00:31:41;11.68;;;5.82;;
49948;SDS011;35840;45.982;8.890;2024-02-04T00:34:09;7.43;;;5.47;;
49948;SDS011;35840;45.982;8.890;2024-02-04T00:36:36;10.32;;;6.78;;
49948;SDS011;35840;45.982;8.890;2024-02-04T00:39:03;10.50;;;5.80;;
49948;SDS011;35840;45.982;8.890;2024-02-04T00:41:30;6.55;;;5.00;;
49948;SDS011;35840;45.982;8.890;2024-02-04T00:43:57;11.07;;;5.75;;
49948;SDS011;35840;45.982;8.890;2024-02-04T00:46:23;10.07;;;6.15;;
49948;SDS011;35840;45.982;8.890;2024-02-04T00:48:50;7.40;;;5.60;;
49948;SDS011;35840;45.982;8.890;2024-02-04T00:51:17;9.23;;;6.15;;
49948;SDS011;35840;45.982;8.890;2024-02-04T00:53:46;11.25;;;6.03;;
49948;SDS011;35840;45.982;8.890;2024-02-04T00:56:13;12.68;;;5.78;;
49948;SDS011;35840;45.982;8.890;2024-02-04T00:58:40;10.82;;;5.35;;
49948;SDS011;35840;45.982;8.890;2024-02-04T01:01:07;10.07;;;5.50;;
49948;SDS011;35840;45.982;8.890;2024-02-04T01:03:34;9.95;;;5.65;;
49948;SDS011;35840;45.982;8.890;2024-02-04T01:06:01;10.57;;;5.85;;
49948;SDS011;35840;45.982;8.890;2024-02-04T01:08:28;10.40;;;6.25;;
49948;SDS011;35840;45.982;8.890;2024-02-04T01:10:55;13.02;;;6.22;;
49948;SDS011;35840;45.982;8.890;2024-02-04T01:13:22;15.40;;;6.38;;
49948;SDS011;35840;45.982;8.890;2024-02-04T01:15:48;9.48;;;4.78;;
49948;SDS011;35840;45.982;8.890;2024-02-04T01:18:15;10.18;;;6.53;;
49948;SDS011;35840;45.982;8.890;2024-02-04T01:20:42;8.80;;;5.18;;
49948;SDS011;35840;45.982;8.890;2024-02-04T01:23:09;10.82;;;6.00;;
49948;SDS011;35840;45.982;8.890;2024-02-04T01:25:36;10.15;;;5.07;;
49948;SDS011;35840;45.982;8.890;2024-02-04T01:28:07;6.88;;;4.90;;
49948;SDS011;35840;45.982;8.890;2024-02-04T01:30:33;7.28;;;4.90;;
49948;SDS011;35840;45.982;8.890;2024-02-04T01:33:00;8.45;;;5.30;;
49948;SDS011;35840;45.982;8.890;2024-02-04T01:35:27;10.13;;;5.10;;
49948;SDS011;35840;45.982;8.890;2024-02-04T01:37:54;9.23;;;5.40;;
49948;SDS011;35840;45.982;8.890;2024-02-04T01:40:21;6.53;;;4.13;;
49948;SDS011;35840;45.982;8.890;2024-02-04T01:42:48;9.07;;;4.47;;
49948;SDS011;35840;45.982;8.890;2024-02-04T01:45:15;7.80;;;4.65;;
49948;SDS011;35840;45.982;8.890;2024-02-04T01:47:41;5.78;;;4.20;;
49948;SDS011;35840;45.982;8.890;2024-02-04T01:50:09;6.30;;;4.43;;
49948;SDS011;35840;45.982;8.890;2024-02-04T01:52:37;5.93;;;3.55;;
49948;SDS011;35840;45.982;8.890;2024-02-04T01:55:06;6.05;;;3.53;;
49948;SDS011;35840;45.982;8.890;2024-02-04T01:57:34;4.05;;;3.13;;
49948;SDS011;35840;45.982;8.890;2024-02-04T02:00:04;8.95;;;4.05;;
49948;SDS011;35840;45.982;8.890;2024-02-04T02:02:32;4.63;;;2.80;;
49948;SDS011;35840;45.982;8.890;2024-02-04T02:05:00;7.05;;;3.60;;
49948;SDS011;35840;45.982;8.890;2024-02-04T02:07:28;7.35;;;3.83;;
49948;SDS011;35840;45.982;8.890;2024-02-04T02:09:54;6.22;;;3.92;;
49948;SDS011;35840;45.982;8.890;2024-02-04T02:12:24;5.97;;;2.97;;
49948;SDS011;35840;45.982;8.890;2024-02-04T02:14:58;5.60;;;3.50;;
49948;SDS011;35840;45.982;8.890;2024-02-04T02:17:38;4.35;;;3.35;;
49948;SDS011;35840;45.982;8.890;2024-02-04T02:20:32;7.05;;;3.45;;
49948;SDS011;35840;45.982;8.890;2024-02-04T02:23:27;6.55;;;3.97;;
49948;SDS011;35840;45.982;8.890;2024-02-04T02:25:57;5.22;;;3.40;;
49948;SDS011;35840;45.982;8.890;2024-02-04T02:28:25;8.10;;;3.30;;
49948;SDS011;35840;45.982;8.890;2024-02-04T02:30:52;5.72;;;3.70;;
49948;SDS011;35840;45.982;8.890;2024-02-04T02:33:19;5.57;;;3.17;;
49948;SDS011;35840;45.982;8.890;2024-02-04T02:35:46;5.82;;;3.63;;
49948;SDS011;35840;45.982;8.890;2024-02-04T02:41:10;6.50;;;3.10;;
49948;SDS011;35840;45.982;8.890;2024-02-04T02:43:39;5.63;;;3.22;;
49948;SDS011;35840;45.982;8.890;2024-02-04T02:46:07;5.32;;;3.83;;
49948;SDS011;35840;45.982;8.890;2024-02-04T02:48:35;5.18;;;2.88;;
49948;SDS011;35840;45.982;8.890;2024-02-04T02:51:02;6.07;;;3.58;;
49948;SDS011;35840;45.982;8.890;2024-02-04T02:53:31;3.45;;;2.85;;
49948;SDS011;35840;45.982;8.890;2024-02-04T02:56:01;5.57;;;3.50;;
49948;SDS011;35840;45.982;8.890;2024-02-04T02:58:27;4.15;;;3.00;;
49948;SDS011;35840;45.982;8.890;2024-02-04T03:00:54;6.60;;;3.10;;
49948;SDS011;35840;45.982;8.890;2024-02-04T03:03:21;6.65;;;3.22;;
49948;SDS011;35840;45.982;8.890;2024-02-04T03:05:48;3.90;;;2.50;;
49948;SDS011;35840;45.982;8.890;2024-02-04T03:08:15;3.45;;;2.40;;
49948;SDS011;35840;45.982;8.890;2024-02-04T03:10:43;4.30;;;2.45;;
49948;SDS011;35840;45.982;8.890;2024-02-04T03:13:10;4.00;;;2.30;;
49948;SDS011;35840;45.982;8.890;2024-02-04T03:15:43;5.40;;;2.40;;
49948;SDS011;35840;45.982;8.890;2024-02-04T03:18:12;3.83;;;2.47;;
49948;SDS011;35840;45.982;8.890;2024-02-04T03:20:39;5.97;;;3.15;;
49948;SDS011;35840;45.982;8.890;2024-02-04T03:23:06;16.58;;;9.23;;
49948;SDS011;35840;45.982;8.890;2024-02-04T03:25:32;7.70;;;4.35;;
49948;SDS011;35840;45.982;8.890;2024-02-04T03:27:59;5.13;;;3.08;;
49948;SDS011;35840;45.982;8.890;2024-02-04T03:30:26;5.85;;;3.80;;
49948;SDS011;35840;45.982;8.890;2024-02-04T03:32:53;4.20;;;2.83;;
49948;SDS011;35840;45.982;8.890;2024-02-04T03:35:21;4.13;;;2.83;;
49948;SDS011;35840;45.982;8.890;2024-02-04T03:37:48;5.47;;;3.40;;
49948;SDS011;35840;45.982;8.890;2024-02-04T03:40:15;5.43;;;3.40;;
49948;SDS011;35840;45.982;8.890;2024-02-04T03:42:41;4.40;;;3.20;;
49948;SDS011;35840;45.982;8.890;2024-02-04T03:45:08;4.05;;;2.92;;
49948;SDS011;35840;45.982;8.890;2024-02-04T03:47:35;4.45;;;2.92;;
49948;SDS011;35840;45.982;8.890;2024-02-04T03:50:02;5.93;;;3.47;;
49948;SDS011;35840;45.982;8.890;2024-02-04T03:52:30;5.88;;;3.45;;
49948;SDS011;35840;45.982;8.890;2024-02-04T03:54:57;5.25;;;3.42;;
49948;SDS011;35840;45.982;8.890;2024-02-04T03:57:28;4.93;;;2.72;;
49948;SDS011;35840;45.982;8.890;2024-02-04T03:59:54;7.40;;;2.90;;
49948;SDS011;35840;45.982;8.890;2024-02-04T04:02:21;5.63;;;3.28;;
49948;SDS011;35840;45.982;8.890;2024-02-04T04:04:48;4.35;;;3.58;;
49948;SDS011;35840;45.982;8.890;2024-02-04T04:07:15;4.00;;;3.03;;
49948;SDS011;35840;45.982;8.890;2024-02-04T04:09:42;10.57;;;3.28;;
49948;SDS011;35840;45.982;8.890;2024-02-04T04:12:09;3.97;;;2.92;;
49948;SDS011;35840;45.982;8.890;2024-02-04T04:14:36;4.03;;;2.80;;
49948;SDS011;35840;45.982;8.890;2024-02-04T04:17:03;4.70;;;3.25;;
49948;SDS011;35840;45.982;8.890;2024-02-04T04:19:30;3.67;;;2.85;;
49948;SDS011;35840;45.982;8.890;2024-02-04T04:21:59;4.93;;;2.42;;
49948;SDS011;35840;45.982;8.890;2024-02-04T04:24:27;2.65;;;2.30;;
49948;SDS011;35840;45.982;8.890;2024-02-04T04:26:54;2.65;;;2.22;;
49948;SDS011;35840;45.982;8.890;2024-02-04T04:29:21;4.03;;;2.53;;
49948;SDS011;35840;45.982;8.890;2024-02-04T04:31:48;4.05;;;2.50;;
49948;SDS011;35840;45.982;8.890;2024-02-04T04:34:14;3.22;;;2.10;;
49948;SDS011;35840;45.982;8.890;2024-02-04T04:36:42;3.72;;;2.38;;
49948;SDS011;35840;45.982;8.890;2024-02-04T04:39:08;4.40;;;1.95;;
49948;SDS011;35840;45.982;8.890;2024-02-04T04:41:35;2.75;;;1.98;;
49948;SDS011;35840;45.982;8.890;2024-02-04T04:44:02;3.30;;;2.03;;
49948;SDS011;35840;45.982;8.890;2024-02-04T04:46:29;5.78;;;2.70;;
49948;SDS011;35840;45.982;8.890;2024-02-04T04:48:56;3.53;;;2.47;;
49948;SDS011;35840;45.982;8.890;2024-02-04T04:51:24;3.17;;;1.98;;
49948;SDS011;35840;45.982;8.890;2024-02-04T04:53:51;2.80;;;1.73;;
49948;SDS011;35840;45.982;8.890;2024-02-04T04:56:18;2.17;;;1.98;;
49948;SDS011;35840;45.982;8.890;2024-02-04T04:58:45;4.22;;;2.67;;
49948;SDS011;35840;45.982;8.890;2024-02-04T05:01:12;5.82;;;2.78;;
49948;SDS011;35840;45.982;8.890;2024-02-04T05:03:39;5.97;;;3.17;;
49948;SDS011;35840;45.982;8.890;2024-02-04T05:06:06;4.35;;;2.72;;
49948;SDS011;35840;45.982;8.890;2024-02-04T05:08:33;2.88;;;2.45;;
49948;SDS011;35840;45.982;8.890;2024-02-04T05:11:00;3.80;;;2.60;;
49948;SDS011;35840;45.982;8.890;2024-02-04T05:13:27;4.15;;;2.30;;
49948;SDS011;35840;45.982;8.890;2024-02-04T05:15:54;5.00;;;2.58;;
49948;SDS011;35840;45.982;8.890;2024-02-04T05:18:21;5.82;;;2.30;;
49948;SDS011;35840;45.982;8.890;2024-02-04T05:20:47;3.20;;;2.65;;
49948;SDS011;35840;45.982;8.890;2024-02-04T05:23:14;5.85;;;2.47;;
49948;SDS011;35840;45.982;8.890;2024-02-04T05:25:41;5.22;;;2.45;;
49948;SDS011;35840;45.982;8.890;2024-02-04T05:28:08;7.07;;;2.10;;
49948;SDS011;35840;45.982;8.890;2024-02-04T05:30:35;4.03;;;2.30;;
49948;SDS011;35840;45.982;8.890;2024-02-04T05:33:02;3.50;;;2.63;;
49948;SDS011;35840;45.982;8.890;2024-02-04T05:35:29;2.47;;;1.90;;
49948;SDS011;35840;45.982;8.890;2024-02-04T05:37:56;2.78;;;2.33;;
49948;SDS011;35840;45.982;8.890;2024-02-04T05:40:23;5.45;;;2.35;;
49948;SDS011;35840;45.982;8.890;2024-02-04T05:42:50;4.22;;;2.55;;
49948;SDS011;35840;45.982;8.890;2024-02-04T05:45:17;2.10;;;1.90;;
49948;SDS011;35840;45.982;8.890;2024-02-04T05:47:44;3.03;;;2.45;;
49948;SDS011;35840;45.982;8.890;2024-02-04T05:50:11;5.03;;;2.38;;
49948;SDS011;35840;45.982;8.890;2024-02-04T05:52:39;4.00;;;2.25;;
49948;SDS011;35840;45.982;8.890;2024-02-04T05:55:06;4.20;;;2.65;;
49948;SDS011;35840;45.982;8.890;2024-02-04T05:57:33;3.72;;;2.72;;
49948;SDS011;35840;45.982;8.890;2024-02-04T06:00:00;5.07;;;2.28;;
49948;SDS011;35840;45.982;8.890;2024-02-04T06:02:26;3.80;;;3.03;;
49948;SDS011;35840;45.982;8.890;2024-02-04T06:04:53;4.25;;;3.08;;
49948;SDS011;35840;45.982;8.890;2024-02-04T06:07:21;5.82;;;3.50;;
49948;SDS011;35840;45.982;8.890;2024-02-04T06:09:48;4.68;;;3.10;;
49948;SDS011;35840;45.982;8.890;2024-02-04T06:12:15;5.15;;;2.95;;
49948;SDS011;35840;45.982;8.890;2024-02-04T06:14:41;5.93;;;3.33;;
49948;SDS011;35840;45.982;8.890;2024-02-04T06:17:08;4.03;;;3.35;;
49948;SDS011;35840;45.982;8.890;2024-02-04T06:19:36;5.55;;;3.35;;
49948;SDS011;35840;45.982;8.890;2024-02-04T06:22:03;8.43;;;4.18;;
49948;SDS011;35840;45.982;8.890;2024-02-04T06:24:30;5.65;;;2.97;;
49948;SDS011;35840;45.982;8.890;2024-02-04T06:26:57;5.50;;;3.58;;
49948;SDS011;35840;45.982;8.890;2024-02-04T06:29:24;5.30;;;3.13;;
49948;SDS011;35840;45.982;8.890;2024-02-04T06:31:51;6.28;;;3.72;;
49948;SDS011;35840;45.982;8.890;2024-02-04T06:34:18;5.25;;;3.10;;
49948;SDS011;35840;45.982;8.890;2024-02-04T06:36:45;4.90;;;3.15;;
49948;SDS011;35840;45.982;8.890;2024-02-04T06:39:12;5.78;;;3.20;;
49948;SDS011;35840;45.982;8.890;2024-02-04T06:41:39;4.90;;;2.97;;
49948;SDS011;35840;45.982;8.890;2024-02-04T06:44:06;4.53;;;3.58;;
49948;SDS011;35840;45.982;8.890;2024-02-04T06:46:33;7.35;;;3.65;;
49948;SDS011;35840;45.982;8.890;2024-02-04T06:49:00;6.80;;;3.45;;
49948;SDS011;35840;45.982;8.890;2024-02-04T06:51:28;4.45;;;2.85;;
49948;SDS011;35840;45.982;8.890;2024-02-04T06:53:55;5.47;;;3.10;;
49948;SDS011;35840;45.982;8.890;2024-02-04T06:56:21;4.47;;;3.30;;
49948;SDS011;35840;45.982;8.890;2024-02-04T06:58:48;5.03;;;3.22;;
49948;SDS011;35840;45.982;8.890;2024-02-04T07:01:15;5.50;;;3.33;;
49948;SDS011;35840;45.982;8.890;2024-02-04T07:03:42;4.28;;;2.88;;
49948;SDS011;35840;45.982;8.890;2024-02-04T07:06:09;4.50;;;3.88;;
49948;SDS011;35840;45.982;8.890;2024-02-04T07:08:36;4.40;;;3.58;;
49948;SDS011;35840;45.982;8.890;2024-02-04T07:11:02;6.80;;;3.22;;
49948;SDS011;35840;45.982;8.890;2024-02-04T07:13:30;5.85;;;3.33;;
49948;SDS011;35840;45.982;8.890;2024-02-04T07:15:56;7.60;;;3.80;;
49948;SDS011;35840;45.982;8.890;2024-02-04T07:18:24;8.25;;;3.83;;
49948;SDS011;35840;45.982;8.890;2024-02-04T07:20:51;4.45;;;2.97;;
49948;SDS011;35840;45.982;8.890;2024-02-04T07:23:18;6.50;;;3.42;;
49948;SDS011;35840;45.982;8.890;2024-02-04T07:25:45;5.05;;;3.33;;
49948;SDS011;35840;45.982;8.890;2024-02-04T07:28:12;4.80;;;3.03;;
49948;SDS011;35840;45.982;8.890;2024-02-04T07:30:39;5.53;;;3.38;;
49948;SDS011;35840;45.982;8.890;2024-02-04T07:33:06;5.00;;;3.60;;
49948;SDS011;35840;45.982;8.890;2024-02-04T07:35:32;7.68;;;3.30;;
49948;SDS011;35840;45.982;8.890;2024-02-04T07:37:59;5.03;;;2.63;;
49948;SDS011;35840;45.982;8.890;2024-02-04T07:40:26;3.33;;;2.95;;
49948;SDS011;35840;45.982;8.890;2024-02-04T07:42:54;2.80;;;2.30;;
49948;SDS011;35840;45.982;8.890;2024-02-04T07:45:21;4.80;;;3.03;;
49948;SDS011;35840;45.982;8.890;2024-02-04T07:47:48;4.68;;;3.10;;
49948;SDS011;35840;45.982;8.890;2024-02-04T07:50:15;5.28;;;3.08;;
49948;SDS011;35840;45.982;8.890;2024-02-04T07:52:42;4.57;;;2.80;;
49948;SDS011;35840;45.982;8.890;2024-02-04T07:55:10;5.05;;;3.40;;
49948;SDS011;35840;45.982;8.890;2024-02-04T07:57:37;5.63;;;3.00;;
49948;SDS011;35840;45.982;8.890;2024-02-04T08:00:05;5.30;;;3.30;;
49948;SDS011;35840;45.982;8.890;2024-02-04T08:02:37;4.75;;;2.55;;
49948;SDS011;35840;45.982;8.890;2024-02-04T08:05:05;5.10;;;3.10;;
49948;SDS011;35840;45.982;8.890;2024-02-04T08:07:32;4.22;;;3.33;;
49948;SDS011;35840;45.982;8.890;2024-02-04T08:09:59;4.57;;;2.88;;
49948;SDS011;35840;45.982;8.890;2024-02-04T08:12:26;5.60;;;3.70;;
49948;SDS011;35840;45.982;8.890;2024-02-04T08:14:52;6.38;;;3.67;;
49948;SDS011;35840;45.982;8.890;2024-02-04T08:17:19;6.78;;;3.65;;
49948;SDS011;35840;45.982;8.890;2024-02-04T08:19:47;4.78;;;3.38;;
49948;SDS011;35840;45.982;8.890;2024-02-04T08:22:14;4.10;;;3.28;;
49948;SDS011;35840;45.982;8.890;2024-02-04T08:24:41;7.38;;;4.18;;
49948;SDS011;35840;45.982;8.890;2024-02-04T08:27:07;6.72;;;4.43;;
49948;SDS011;35840;45.982;8.890;2024-02-04T08:29:35;8.90;;;3.88;;
49948;SDS011;35840;45.982;8.890;2024-02-04T08:32:01;3.58;;;2.85;;
49948;SDS011;35840;45.982;8.890;2024-02-04T08:34:29;4.30;;;3.05;;
49948;SDS011;35840;45.982;8.890;2024-02-04T08:36:55;9.23;;;4.40;;
49948;SDS011;35840;45.982;8.890;2024-02-04T08:39:22;5.63;;;3.58;;
49948;SDS011;35840;45.982;8.890;2024-02-04T08:41:49;6.97;;;3.53;;
49948;SDS011;35840;45.982;8.890;2024-02-04T08:44:16;5.07;;;3.42;;
49948;SDS011;35840;45.982;8.890;2024-02-04T08:47:01;5.47;;;3.78;;
49948;SDS011;35840;45.982;8.890;2024-02-04T08:49:28;6.43;;;4.13;;
49948;SDS011;35840;45.982;8.890;2024-02-04T08:51:56;5.97;;;3.10;;
49948;SDS011;35840;45.982;8.890;2024-02-04T08:54:23;11.00;;;4.60;;
49948;SDS011;35840;45.982;8.890;2024-02-04T08:56:49;5.28;;;4.18;;
49948;SDS011;35840;45.982;8.890;2024-02-04T08:59:16;5.25;;;4.20;;
49948;SDS011;35840;45.982;8.890;2024-02-04T09:01:43;5.88;;;4.65;;
49948;SDS011;35840;45.982;8.890;2024-02-04T09:04:10;5.38;;;4.28;;
49948;SDS011;35840;45.982;8.890;2024-02-04T09:06:37;6.40;;;4.28;;
49948;SDS011;35840;45.982;8.890;2024-02-04T09:09:04;5.05;;;4.22;;
49948;SDS011;35840;45.982;8.890;2024-02-04T09:11:31;12.60;;;5.75;;
49948;SDS011;35840;45.982;8.890;2024-02-04T09:13:57;8.88;;;4.85;;
49948;SDS011;35840;45.982;8.890;2024-02-04T09:16:24;7.43;;;4.72;;
49948;SDS011;35840;45.982;8.890;2024-02-04T09:18:51;6.40;;;4.00;;
49948;SDS011;35840;45.982;8.890;2024-02-04T09:21:18;5.50;;;4.05;;
49948;SDS011;35840;45.982;8.890;2024-02-04T09:23:45;5.82;;;3.47;;
49948;SDS011;35840;45.982;8.890;2024-02-04T09:26:12;6.85;;;3.67;;
49948;SDS011;35840;45.982;8.890;2024-02-04T09:28:44;6.47;;;4.18;;
49948;SDS011;35840;45.982;8.890;2024-02-04T09:31:12;6.78;;;4.00;;
49948;SDS011;35840;45.982;8.890;2024-02-04T09:33:39;5.15;;;3.95;;
49948;SDS011;35840;45.982;8.890;2024-02-04T09:36:07;8.55;;;4.40;;
49948;SDS011;35840;45.982;8.890;2024-02-04T09:38:34;6.97;;;4.57;;
49948;SDS011;35840;45.982;8.890;2024-02-04T09:41:01;7.15;;;4.97;;
49948;SDS011;35840;45.982;8.890;2024-02-04T09:43:32;6.50;;;4.28;;
49948;SDS011;35840;45.982;8.890;2024-02-04T09:46:00;5.40;;;4.00;;
49948;SDS011;35840;45.982;8.890;2024-02-04T09:48:31;4.70;;;3.83;;
49948;SDS011;35840;45.982;8.890;2024-02-04T09:50:59;5.28;;;3.88;;
49948;SDS011;35840;45.982;8.890;2024-02-04T09:53:35;4.78;;;3.67;;
49948;SDS011;35840;45.982;8.890;2024-02-04T09:56:06;6.68;;;3.92;;
49948;SDS011;35840;45.982;8.890;2024-02-04T09:58:35;5.18;;;3.72;;
49948;SDS011;35840;45.982;8.890;2024-02-04T10:01:03;6.25;;;4.18;;
49948;SDS011;35840;45.982;8.890;2024-02-04T10:03:31;5.22;;;3.97;;
49948;SDS011;35840;45.982;8.890;2024-02-04T10:05:58;7.97;;;4.63;;
49948;SDS011;35840;45.982;8.890;2024-02-04T10:08:25;6.22;;;4.30;;
49948;SDS011;35840;45.982;8.890;2024-02-04T10:10:52;6.60;;;4.32;;
49948;SDS011;35840;45.982;8.890;2024-02-04T10:13:21;5.90;;;3.80;;
49948;SDS011;35840;45.982;8.890;2024-02-04T10:15:49;5.57;;;3.90;;
49948;SDS011;35840;45.982;8.890;2024-02-04T10:18:18;6.53;;;4.68;;
49948;SDS011;35840;45.982;8.890;2024-02-04T10:20:44;6.95;;;4.13;;
49948;SDS011;35840;45.982;8.890;2024-02-04T10:23:11;5.30;;;3.28;;
49948;SDS011;35840;45.982;8.890;2024-02-04T10:25:38;5.75;;;3.40;;
49948;SDS011;35840;45.982;8.890;2024-02-04T10:28:05;4.55;;;3.60;;
49948;SDS011;35840;45.982;8.890;2024-02-04T10:30:33;5.20;;;3.75;;
49948;SDS011;35840;45.982;8.890;2024-02-04T10:33:00;5.00;;;3.45;;
49948;SDS011;35840;45.982;8.890;2024-02-04T10:35:27;4.22;;;3.45;;
49948;SDS011;35840;45.982;8.890;2024-02-04T10:37:54;6.60;;;3.65;;
49948;SDS011;35840;45.982;8.890;2024-02-04T10:40:20;5.32;;;3.60;;
49948;SDS011;35840;45.982;8.890;2024-02-04T10:42:47;5.80;;;3.60;;
49948;SDS011;35840;45.982;8.890;2024-02-04T10:45:17;4.30;;;3.17;;
49948;SDS011;35840;45.982;8.890;2024-02-04T10:47:46;4.72;;;3.22;;
49948;SDS011;35840;45.982;8.890;2024-02-04T10:50:22;4.80;;;3.03;;
49948;SDS011;35840;45.982;8.890;2024-02-04T10:52:51;4.05;;;3.08;;
49948;SDS011;35840;45.982;8.890;2024-02-04T10:55:20;5.43;;;3.03;;
49948;SDS011;35840;45.982;8.890;2024-02-04T10:57:54;4.40;;;3.38;;
49948;SDS011;35840;45.982;8.890;2024-02-04T11:00:21;5.68;;;3.17;;
49948;SDS011;35840;45.982;8.890;2024-02-04T11:02:49;7.03;;;3.28;;
49948;SDS011;35840;45.982;8.890;2024-02-04T11:05:17;3.75;;;2.75;;
49948;SDS011;35840;45.982;8.890;2024-02-04T11:07:45;3.90;;;3.08;;
49948;SDS011;35840;45.982;8.890;2024-02-04T11:10:13;6.60;;;2.83;;
49948;SDS011;35840;45.982;8.890;2024-02-04T11:12:41;4.90;;;2.78;;
49948;SDS011;35840;45.982;8.890;2024-02-04T11:15:09;3.35;;;2.40;;
49948;SDS011;35840;45.982;8.890;2024-02-04T11:20:48;4.65;;;2.67;;
49948;SDS011;35840;45.982;8.890;2024-02-04T11:23:31;4.22;;;2.47;;
49948;SDS011;35840;45.982;8.890;2024-02-04T11:26:03;6.43;;;2.80;;
49948;SDS011;35840;45.982;8.890;2024-02-04T11:28:31;2.97;;;2.22;;
49948;SDS011;35840;45.982;8.890;2024-02-04T11:30:59;4.80;;;3.20;;
49948;SDS011;35840;45.982;8.890;2024-02-04T11:33:26;3.72;;;2.60;;
49948;SDS011;35840;45.982;8.890;2024-02-04T11:35:58;3.78;;;2.90;;
49948;SDS011;35840;45.982;8.890;2024-02-04T11:38:39;5.43;;;2.63;;
49948;SDS011;35840;45.982;8.890;2024-02-04T11:41:06;3.75;;;2.40;;
49948;SDS011;35840;45.982;8.890;2024-02-04T11:43:35;3.20;;;2.45;;
49948;SDS011;35840;45.982;8.890;2024-02-04T11:46:04;4.32;;;3.10;;
49948;SDS011;35840;45.982;8.890;2024-02-04T11:48:32;3.40;;;2.75;;
49948;SDS011;35840;45.982;8.890;2024-02-04T11:51:02;3.85;;;2.75;;
49948;SDS011;35840;45.982;8.890;2024-02-04T11:53:31;5.65;;;3.17;;
49948;SDS011;35840;45.982;8.890;2024-02-04T11:56:01;3.92;;;2.42;;
49948;SDS011;35840;45.982;8.890;2024-02-04T11:58:29;5.32;;;2.30;;
49948;SDS011;35840;45.982;8.890;2024-02-04T12:00:58;4.38;;;2.78;;
49948;SDS011;35840;45.982;8.890;2024-02-04T12:03:32;1.75;;;1.65;;
49948;SDS011;35840;45.982;8.890;2024-02-04T12:06:00;2.80;;;1.60;;
49948;SDS011;35840;45.982;8.890;2024-02-04T12:08:29;2.47;;;1.60;;
49948;SDS011;35840;45.982;8.890;2024-02-04T12:10:59;3.35;;;1.33;;
49948;SDS011;35840;45.982;8.890;2024-02-04T12:13:27;4.70;;;2.10;;
49948;SDS011;35840;45.982;8.890;2024-02-04T12:15:55;7.70;;;2.55;;
49948;SDS011;35840;45.982;8.890;2024-02-04T12:18:22;2.28;;;1.55;;
49948;SDS011;35840;45.982;8.890;2024-02-04T12:20:49;4.97;;;1.50;;
49948;SDS011;35840;45.982;8.890;2024-02-04T12:23:17;1.95;;;1.55;;
49948;SDS011;35840;45.982;8.890;2024-02-04T12:25:50;2.30;;;1.58;;
49948;SDS011;35840;45.982;8.890;2024-02-04T12:28:17;1.75;;;1.38;;
49948;SDS011;35840;45.982;8.890;2024-02-04T12:30:52;3.13;;;1.60;;
49948;SDS011;35840;45.982;8.890;2024-02-04T12:33:25;2.85;;;1.38;;
49948;SDS011;35840;45.982;8.890;2024-02-04T12:35:52;1.98;;;1.30;;
49948;SDS011;35840;45.982;8.890;2024-02-04T12:38:22;2.33;;;1.48;;
49948;SDS011;35840;45.982;8.890;2024-02-04T12:40:49;2.25;;;1.25;;
49948;SDS011;35840;45.982;8.890;2024-02-04T12:43:17;2.55;;;1.38;;
49948;SDS011;35840;45.982;8.890;2024-02-04T12:45:43;2.10;;;1.52;;
49948;SDS011;35840;45.982;8.890;2024-02-04T12:48:13;3.53;;;1.52;;
49948;SDS011;35840;45.982;8.890;2024-02-04T12:50:42;4.35;;;2.00;;
49948;SDS011;35840;45.982;8.890;2024-02-04T12:53:09;5.65;;;1.90;;
49948;SDS011;35840;45.982;8.890;2024-02-04T12:55:39;3.42;;;2.40;;
49948;SDS011;35840;45.982;8.890;2024-02-04T12:58:07;2.00;;;1.80;;
49948;SDS011;35840;45.982;8.890;2024-02-04T13:00:36;3.60;;;1.95;;
49948;SDS011;35840;45.982;8.890;2024-02-04T13:03:04;2.00;;;1.85;;
49948;SDS011;35840;45.982;8.890;2024-02-04T13:05:32;4.32;;;1.90;;
49948;SDS011;35840;45.982;8.890;2024-02-04T13:08:00;4.32;;;2.03;;
49948;SDS011;35840;45.982;8.890;2024-02-04T13:10:30;2.97;;;1.77;;
49948;SDS011;35840;45.982;8.890;2024-02-04T13:13:07;2.50;;;2.13;;
49948;SDS011;35840;45.982;8.890;2024-02-04T13:15:39;2.70;;;1.70;;
49948;SDS011;35840;45.982;8.890;2024-02-04T13:18:08;2.40;;;1.70;;
49948;SDS011;35840;45.982;8.890;2024-02-04T13:20:37;3.00;;;2.20;;
49948;SDS011;35840;45.982;8.890;2024-02-04T13:23:05;2.20;;;2.00;;
49948;SDS011;35840;45.982;8.890;2024-02-04T13:25:32;3.92;;;2.08;;
49948;SDS011;35840;45.982;8.890;2024-02-04T13:28:00;4.47;;;2.45;;
49948;SDS011;35840;45.982;8.890;2024-02-04T13:30:27;5.05;;;1.90;;
49948;SDS011;35840;45.982;8.890;2024-02-04T13:32:54;2.55;;;2.35;;
49948;SDS011;35840;45.982;8.890;2024-02-04T13:35:23;4.03;;;2.00;;
49948;SDS011;35840;45.982;8.890;2024-02-04T13:37:50;4.40;;;2.50;;
49948;SDS011;35840;45.982;8.890;2024-02-04T13:40:19;4.55;;;2.00;;
49948;SDS011;35840;45.982;8.890;2024-02-04T13:42:47;3.08;;;2.10;;
49948;SDS011;35840;45.982;8.890;2024-02-04T13:45:14;3.92;;;2.28;;
49948;SDS011;35840;45.982;8.890;2024-02-04T13:47:42;12.63;;;2.70;;
49948;SDS011;35840;45.982;8.890;2024-02-04T13:50:09;3.55;;;2.10;;
49948;SDS011;35840;45.982;8.890;2024-02-04T13:52:38;3.90;;;2.35;;
49948;SDS011;35840;45.982;8.890;2024-02-04T13:55:05;3.17;;;2.10;;
49948;SDS011;35840;45.982;8.890;2024-02-04T13:57:36;3.00;;;2.20;;
49948;SDS011;35840;45.982;8.890;2024-02-04T14:00:03;3.60;;;2.75;;
49948;SDS011;35840;45.982;8.890;2024-02-04T14:02:32;6.50;;;4.03;;
49948;SDS011;35840;45.982;8.890;2024-02-04T14:04:59;4.07;;;2.95;;
49948;SDS011;35840;45.982;8.890;2024-02-04T14:07:27;5.32;;;2.83;;
49948;SDS011;35840;45.982;8.890;2024-02-04T14:09:54;6.07;;;3.28;;
49948;SDS011;35840;45.982;8.890;2024-02-04T14:12:21;4.50;;;3.08;;
49948;SDS011;35840;45.982;8.890;2024-02-04T14:14:48;6.53;;;3.15;;
49948;SDS011;35840;45.982;8.890;2024-02-04T14:17:15;6.45;;;2.60;;
49948;SDS011;35840;45.982;8.890;2024-02-04T14:19:42;6.35;;;2.92;;
49948;SDS011;35840;45.982;8.890;2024-02-04T14:22:11;3.33;;;2.38;;
49948;SDS011;35840;45.982;8.890;2024-02-04T14:24:38;7.00;;;2.20;;
49948;SDS011;35840;45.982;8.890;2024-02-04T14:27:05;2.40;;;2.17;;
49948;SDS011;35840;45.982;8.890;2024-02-04T14:29:32;3.05;;;2.03;;
49948;SDS011;35840;45.982;8.890;2024-02-04T14:31:59;3.65;;;2.30;;
49948;SDS011;35840;45.982;8.890;2024-02-04T14:34:26;3.00;;;2.33;;
49948;SDS011;35840;45.982;8.890;2024-02-04T14:36:55;3.47;;;1.98;;
49948;SDS011;35840;45.982;8.890;2024-02-04T14:39:22;3.65;;;2.60;;
49948;SDS011;35840;45.982;8.890;2024-02-04T14:41:48;2.95;;;2.05;;
49948;SDS011;35840;45.982;8.890;2024-02-04T14:44:15;3.35;;;2.10;;
49948;SDS011;35840;45.982;8.890;2024-02-04T14:46:42;2.78;;;1.88;;
49948;SDS011;35840;45.982;8.890;2024-02-04T14:49:09;2.22;;;1.63;;
49948;SDS011;35840;45.982;8.890;2024-02-04T14:51:39;2.63;;;1.52;;
49948;SDS011;35840;45.982;8.890;2024-02-04T14:54:09;5.20;;;2.28;;
49948;SDS011;35840;45.982;8.890;2024-02-04T14:56:39;5.07;;;2.75;;